Shaft, Pennsylvania
Current Conditions -  °F | °C
As of 2:15 AM on Thursday 18 Dec 2014 (Local Time) from KHZL Reporting Station
Overcast Overcast  
Wind Chill: 23°   Ceiling: 3300
Heat Index: 32°   Visibility: 10mi
Dew Point: 23°   Wind: 12mph
Humidity: 69%   Direction: 270°W
Pressure: 29.95"   Gusts: 21mph
Location:  40.8208°N, 76.1672°W
Report Text: KHZL 180715Z AUTO 27010G18KT 240V310 10SM OVC033 00/M05 A2995 RMK AO2
Loading
Personal Weather Stations






























Interactive Weather Map New forecast layout! Learn more

10-Day Weather Forecast

Advertisements
Track Severe Weather on mobile